createdAt,value
2023-07-04T00:01:58.374Z,47.82
2023-07-04T00:04:25.065Z,48.00
2023-07-04T00:06:52.285Z,48.10
2023-07-04T00:09:19.237Z,47.89
2023-07-04T00:11:45.817Z,47.88
2023-07-04T00:14:12.723Z,48.05
2023-07-04T00:16:39.395Z,47.98
2023-07-04T00:19:07.717Z,48.08
2023-07-04T00:21:34.716Z,48.22
2023-07-04T00:24:01.621Z,48.50
2023-07-04T00:26:29.212Z,48.69
2023-07-04T00:28:55.924Z,48.25
2023-07-04T00:31:24.932Z,48.50
2023-07-04T00:33:52.929Z,48.52
2023-07-04T00:36:20.816Z,48.46
2023-07-04T00:38:50.550Z,48.34
2023-07-04T00:41:22.864Z,48.50
2023-07-04T00:44:08.822Z,48.49
2023-07-04T00:46:46.380Z,48.57
2023-07-04T00:49:27.650Z,48.64
2023-07-04T00:51:59.953Z,48.73
2023-07-04T00:54:30.887Z,48.93
2023-07-04T00:57:05.969Z,49.01
2023-07-04T00:59:35.606Z,48.83
2023-07-04T01:02:02.323Z,48.75
2023-07-04T01:04:33.392Z,48.82
2023-07-04T01:07:17.789Z,49.10
2023-07-04T01:09:51.736Z,48.80
2023-07-04T01:12:19.576Z,49.01
2023-07-04T01:14:48.980Z,49.02
2023-07-04T01:17:15.728Z,48.88
2023-07-04T01:19:43.086Z,49.13
2023-07-04T01:22:21.961Z,49.19
2023-07-04T01:25:07.957Z,49.19
2023-07-04T01:27:36.922Z,49.20
2023-07-04T01:32:36.773Z,49.40
2023-07-04T01:35:05.900Z,49.59
2023-07-04T01:37:32.579Z,49.64
2023-07-04T01:40:01.232Z,49.40
2023-07-04T01:42:37.844Z,49.56
2023-07-04T01:45:07.141Z,49.49
2023-07-04T01:47:36.029Z,49.59
2023-07-04T01:50:03.987Z,49.57
2023-07-04T01:52:31.324Z,49.96
2023-07-04T01:54:59.001Z,49.49
2023-07-04T01:57:26.392Z,49.82
2023-07-04T01:59:53.308Z,49.25
2023-07-04T02:02:20.103Z,49.90
2023-07-04T02:04:47.903Z,49.65
2023-07-04T02:07:14.644Z,49.75
2023-07-04T02:09:41.294Z,50.23
2023-07-04T02:12:08.228Z,50.04
2023-07-04T02:14:34.869Z,49.67
2023-07-04T02:17:01.582Z,50.09
2023-07-04T02:19:28.358Z,49.88
2023-07-04T02:21:54.992Z,50.14
2023-07-04T02:24:21.764Z,50.27
2023-07-04T02:26:48.351Z,50.12
2023-07-04T02:29:14.946Z,50.19
2023-07-04T02:31:41.530Z,50.35
2023-07-04T02:34:08.487Z,50.21
2023-07-04T02:36:35.238Z,50.28
2023-07-04T02:39:02.033Z,49.96
2023-07-04T02:41:30.841Z,50.40
2023-07-04T02:43:58.424Z,50.60
2023-07-04T02:46:25.192Z,49.96
2023-07-04T02:48:51.968Z,50.25
2023-07-04T02:51:18.658Z,50.18
2023-07-04T02:53:45.409Z,50.25
2023-07-04T02:56:12.770Z,50.33
2023-07-04T02:58:39.316Z,50.28
2023-07-04T03:01:06.388Z,50.34
2023-07-04T03:03:33.297Z,50.15
2023-07-04T03:06:02.010Z,50.24
2023-07-04T03:08:28.732Z,50.35
2023-07-04T03:10:55.618Z,50.28
2023-07-04T03:13:22.553Z,50.42
2023-07-04T03:15:49.263Z,50.35
2023-07-04T03:18:16.087Z,50.26
2023-07-04T03:20:42.823Z,50.28
2023-07-04T03:23:09.635Z,50.23
2023-07-04T03:25:36.633Z,50.48
2023-07-04T03:28:03.367Z,50.20
2023-07-04T03:30:30.023Z,50.37
2023-07-04T03:32:56.819Z,50.53
2023-07-04T03:35:23.548Z,50.19
2023-07-04T03:37:50.146Z,50.21
2023-07-04T03:40:16.758Z,50.59
2023-07-04T03:42:43.576Z,50.78
2023-07-04T03:45:10.975Z,50.81
2023-07-04T03:47:37.539Z,50.60
2023-07-04T03:50:05.113Z,50.24
2023-07-04T03:52:31.869Z,50.92
2023-07-04T03:54:58.531Z,51.16
2023-07-04T03:57:25.197Z,50.86
2023-07-04T03:59:51.721Z,50.78
2023-07-04T04:02:18.295Z,51.13
2023-07-04T04:04:45.153Z,50.71
2023-07-04T04:07:12.217Z,50.97
2023-07-04T04:09:39.690Z,50.95
2023-07-04T04:12:08.617Z,50.93
2023-07-04T04:14:36.622Z,50.93
2023-07-04T04:17:04.452Z,51.25
2023-07-04T04:19:31.198Z,51.17
2023-07-04T04:21:57.982Z,50.89
2023-07-04T04:24:25.116Z,51.14
2023-07-04T04:26:51.704Z,51.12
2023-07-04T04:29:19.238Z,51.03
2023-07-04T04:31:47.130Z,51.04
2023-07-04T04:34:14.867Z,51.15
2023-07-04T04:36:41.458Z,51.29
2023-07-04T04:39:08.242Z,51.25
2023-07-04T04:41:35.124Z,51.27
2023-07-04T04:44:04.033Z,51.56
2023-07-04T04:46:30.795Z,51.28
2023-07-04T04:48:59.711Z,51.29
2023-07-04T04:51:26.429Z,51.23
2023-07-04T04:53:53.420Z,51.19
2023-07-04T04:56:20.203Z,51.16
2023-07-04T04:58:46.981Z,51.16
2023-07-04T05:01:24.287Z,51.19
2023-07-04T05:03:56.320Z,51.39
2023-07-04T05:06:25.738Z,51.38
2023-07-04T05:08:52.889Z,51.34
2023-07-04T05:11:20.580Z,51.29
2023-07-04T05:13:47.862Z,50.86
2023-07-04T05:16:17.735Z,51.12
2023-07-04T05:18:45.153Z,51.22
2023-07-04T05:21:19.411Z,51.32
2023-07-04T05:23:47.883Z,51.18
2023-07-04T05:26:23.225Z,51.43
2023-07-04T05:28:52.611Z,51.44
2023-07-04T05:31:22.546Z,51.20
2023-07-04T05:33:49.793Z,51.29
2023-07-04T05:36:17.744Z,51.36
2023-07-04T05:38:45.164Z,51.36
2023-07-04T05:41:13.237Z,51.42
2023-07-04T05:43:40.681Z,51.23
2023-07-04T05:46:07.790Z,51.29
2023-07-04T05:48:35.783Z,51.17
2023-07-04T05:51:08.773Z,51.10
2023-07-04T05:53:37.465Z,51.10
2023-07-04T05:56:14.007Z,50.96
2023-07-04T05:58:46.388Z,50.97
2023-07-04T06:01:20.048Z,50.74
2023-07-04T06:03:46.715Z,50.83
2023-07-04T06:06:22.598Z,50.88
2023-07-04T06:08:50.550Z,50.71
2023-07-04T06:11:18.212Z,50.58
2023-07-04T06:13:45.191Z,50.25
2023-07-04T06:16:12.496Z,50.15
2023-07-04T06:18:40.311Z,50.35
2023-07-04T06:21:10.567Z,50.21
2023-07-04T06:23:37.824Z,49.96
2023-07-04T06:26:06.400Z,50.05
2023-07-04T06:28:34.386Z,49.57
2023-07-04T06:31:04.944Z,49.61
2023-07-04T06:33:32.342Z,49.37
2023-07-04T06:35:59.514Z,49.44
2023-07-04T06:38:26.379Z,49.47
2023-07-04T06:41:01.078Z,49.47
2023-07-04T06:43:29.841Z,49.29
2023-07-04T06:45:57.047Z,49.11
2023-07-04T06:48:24.705Z,49.07
2023-07-04T06:51:06.023Z,49.00
2023-07-04T06:53:34.538Z,49.06
2023-07-04T06:56:08.757Z,48.77
2023-07-04T06:58:38.332Z,48.97
2023-07-04T07:01:05.543Z,49.08
2023-07-04T07:03:32.711Z,48.72
2023-07-04T07:06:03.728Z,48.76
2023-07-04T07:08:30.420Z,48.65
2023-07-04T07:10:59.761Z,48.68
2023-07-04T07:13:27.251Z,48.59
2023-07-04T07:16:08.692Z,48.78
2023-07-04T07:18:36.384Z,48.82
2023-07-04T07:21:04.630Z,48.76
2023-07-04T07:23:34.517Z,49.01
2023-07-04T07:26:03.287Z,48.62
2023-07-04T07:28:35.860Z,48.61
2023-07-04T07:31:07.717Z,48.51
2023-07-04T07:33:36.426Z,48.36
2023-07-04T07:36:16.879Z,48.47
2023-07-04T07:38:44.155Z,48.26
2023-07-04T07:41:11.049Z,48.40
2023-07-04T07:43:39.795Z,48.17
2023-07-04T07:46:13.909Z,48.21
2023-07-04T07:48:41.134Z,48.39
2023-07-04T07:51:09.394Z,48.16
2023-07-04T07:53:38.177Z,48.25
2023-07-04T07:56:06.556Z,48.05
2023-07-04T07:58:34.169Z,47.97
2023-07-04T08:01:01.397Z,47.96
2023-07-04T08:03:28.626Z,47.95
2023-07-04T08:05:55.244Z,47.82
2023-07-04T08:08:21.802Z,47.74
2023-07-04T08:10:48.524Z,47.75
2023-07-04T08:13:15.393Z,47.76
2023-07-04T08:15:42.057Z,47.61
2023-07-04T08:18:11.261Z,48.14
2023-07-04T08:20:38.501Z,47.72
2023-07-04T08:23:05.527Z,47.71
2023-07-04T08:25:32.279Z,47.49
2023-07-04T08:28:01.281Z,47.61
2023-07-04T08:30:27.925Z,47.67
2023-07-04T08:32:54.743Z,47.41
2023-07-04T08:35:21.796Z,47.81
2023-07-04T08:37:48.523Z,47.66
2023-07-04T08:40:17.745Z,48.15
2023-07-04T08:42:45.152Z,47.65
2023-07-04T08:45:18.123Z,47.52
2023-07-04T08:47:44.936Z,47.71
2023-07-04T08:50:32.898Z,47.64
2023-07-04T08:53:23.805Z,47.47
2023-07-04T08:56:12.463Z,47.49
2023-07-04T08:58:53.787Z,47.54
2023-07-04T09:01:38.742Z,47.59
2023-07-04T09:04:22.686Z,47.72
2023-07-04T09:07:05.212Z,47.33
2023-07-04T09:09:50.185Z,47.40
2023-07-04T09:12:17.270Z,47.48
2023-07-04T09:14:57.342Z,47.25
2023-07-04T09:18:22.264Z,47.18
2023-07-04T09:21:00.942Z,47.07
2023-07-04T09:23:27.681Z,47.29
2023-07-04T09:25:57.456Z,47.04
2023-07-04T09:28:24.999Z,47.28
2023-07-04T09:30:59.655Z,47.18
2023-07-04T09:33:29.322Z,47.00
2023-07-04T09:35:58.113Z,47.06
2023-07-04T09:38:25.173Z,46.96
2023-07-04T09:40:55.952Z,46.71
2023-07-04T09:43:31.423Z,46.93
2023-07-04T09:46:30.745Z,46.83
2023-07-04T09:49:24.931Z,46.65
2023-07-04T09:52:00.510Z,46.92
2023-07-04T09:54:27.998Z,46.76
2023-07-04T09:56:55.345Z,46.83
2023-07-04T09:59:28.064Z,46.55
2023-07-04T10:01:59.954Z,46.82
2023-07-04T10:04:37.364Z,46.73
2023-07-04T10:07:12.159Z,46.62
2023-07-04T10:10:05.445Z,46.78
2023-07-04T10:12:40.902Z,46.85
2023-07-04T10:15:08.296Z,46.99
2023-07-04T10:17:40.623Z,46.77
2023-07-04T10:20:14.280Z,46.66
2023-07-04T10:22:49.303Z,46.63
2023-07-04T10:25:19.056Z,46.03
2023-07-04T10:27:50.333Z,46.38
2023-07-04T10:30:22.606Z,46.96
2023-07-04T10:32:55.011Z,46.47
2023-07-04T10:35:26.283Z,46.48
2023-07-04T10:38:02.821Z,46.70
2023-07-04T10:40:30.116Z,46.52
2023-07-04T10:43:06.875Z,46.55
2023-07-04T10:45:34.178Z,46.59
2023-07-04T10:48:10.861Z,46.72
2023-07-04T10:50:49.987Z,46.93
2023-07-04T10:53:18.892Z,46.83
2023-07-04T10:56:14.663Z,46.59
2023-07-04T10:58:45.999Z,46.75
2023-07-04T11:01:38.953Z,46.58
2023-07-04T11:04:21.378Z,46.61
2023-07-04T11:07:01.493Z,46.61
2023-07-04T11:09:34.932Z,46.46
2023-07-04T11:12:06.475Z,46.32
2023-07-04T11:14:37.429Z,46.58
2023-07-04T11:17:08.483Z,46.38
2023-07-04T11:19:35.348Z,46.29
2023-07-04T11:22:02.434Z,46.53
2023-07-04T11:24:38.885Z,47.22
2023-07-04T11:27:15.992Z,46.94
2023-07-04T11:29:55.273Z,46.86
2023-07-04T11:32:28.721Z,46.78
2023-07-04T11:35:01.284Z,46.76
2023-07-04T11:37:33.702Z,46.42
2023-07-04T11:40:11.280Z,46.98
2023-07-04T11:42:48.592Z,46.73
2023-07-04T11:45:18.352Z,46.58
2023-07-04T11:48:04.083Z,46.85
2023-07-04T11:50:46.305Z,46.57
2023-07-04T11:53:17.060Z,46.49
2023-07-04T11:55:44.709Z,46.98
2023-07-04T11:58:11.271Z,46.98
2023-07-04T12:00:40.449Z,46.77
2023-07-04T12:03:19.732Z,46.92
2023-07-04T12:05:49.776Z,46.77
2023-07-04T12:08:35.617Z,47.33
2023-07-04T12:11:10.261Z,46.94
2023-07-04T12:13:40.237Z,46.87
2023-07-04T12:16:07.428Z,47.01
2023-07-04T12:18:36.047Z,46.98
2023-07-04T12:21:02.804Z,47.11
2023-07-04T12:23:30.291Z,47.19
2023-07-04T12:26:01.235Z,47.35
2023-07-04T12:28:32.581Z,47.45
2023-07-04T12:33:45.518Z,49.83
2023-07-04T12:36:16.633Z,48.11
2023-07-04T12:38:51.385Z,48.21
2023-07-04T12:41:22.186Z,48.23
2023-07-04T12:51:47.169Z,48.66
2023-07-04T12:54:16.469Z,48.68
2023-07-04T12:56:46.002Z,49.86
2023-07-04T12:59:33.758Z,51.15
2023-07-04T13:02:05.669Z,50.67
2023-07-04T13:04:34.205Z,50.55
2023-07-04T13:07:00.880Z,50.46
2023-07-04T13:09:27.741Z,50.57
2023-07-04T13:11:54.611Z,51.47
2023-07-04T13:14:29.064Z,52.08
2023-07-04T13:17:13.219Z,52.55
2023-07-04T13:19:44.902Z,53.14
2023-07-04T13:22:17.180Z,52.80
2023-07-04T13:24:58.571Z,52.31
2023-07-04T13:27:30.660Z,52.76
2023-07-04T13:35:36.856Z,52.36
2023-07-04T13:40:34.906Z,52.70
2023-07-04T13:45:41.857Z,53.52
2023-07-04T13:48:09.011Z,53.80
2023-07-04T13:50:36.344Z,53.97
2023-07-04T13:53:14.178Z,54.42
2023-07-04T13:55:41.403Z,54.49
2023-07-04T13:58:08.188Z,54.91
2023-07-04T14:00:40.976Z,55.43
2023-07-04T14:05:56.713Z,55.00
2023-07-04T14:08:25.140Z,55.62
2023-07-04T14:11:01.920Z,55.25
2023-07-04T14:13:29.139Z,55.79
2023-07-04T14:21:05.560Z,55.77
2023-07-04T14:23:32.466Z,56.46
2023-07-04T14:25:59.128Z,56.32
2023-07-04T14:28:25.963Z,55.80
2023-07-04T14:30:55.487Z,55.46
2023-07-04T14:33:22.827Z,55.64
2023-07-04T14:35:50.126Z,56.38
2023-07-04T14:38:17.710Z,56.43
2023-07-04T14:43:13.968Z,55.76
2023-07-04T14:45:40.559Z,57.07
2023-07-04T14:48:07.354Z,55.98
2023-07-04T14:50:34.472Z,55.58
2023-07-04T14:53:01.256Z,55.42
2023-07-04T14:55:27.815Z,55.99
2023-07-04T14:57:55.333Z,57.81
2023-07-04T15:00:23.782Z,58.14
2023-07-04T15:02:50.781Z,58.14
2023-07-04T15:05:17.624Z,58.40
2023-07-04T15:07:44.914Z,58.78
2023-07-04T15:10:11.976Z,59.21
2023-07-04T15:12:38.806Z,59.29
2023-07-04T15:15:06.113Z,59.09
2023-07-04T15:17:32.627Z,59.54
2023-07-04T15:19:59.348Z,58.66
2023-07-04T15:22:25.920Z,58.19
2023-07-04T15:24:52.589Z,57.91
2023-07-04T15:27:19.162Z,58.06
2023-07-04T15:29:45.737Z,57.54
2023-07-04T15:32:12.310Z,57.40
2023-07-04T15:34:40.671Z,57.42
2023-07-04T15:37:09.148Z,57.50
2023-07-04T15:39:36.261Z,57.66
2023-07-04T15:42:03.150Z,57.58
2023-07-04T15:44:30.054Z,57.81
2023-07-04T15:46:57.083Z,56.94
2023-07-04T15:49:23.710Z,57.16
2023-07-04T15:51:57.162Z,56.94
2023-07-04T15:54:24.663Z,56.75
2023-07-04T15:56:52.112Z,56.73
2023-07-04T15:59:18.584Z,56.55
2023-07-04T16:01:46.013Z,56.31
2023-07-04T16:04:13.277Z,55.87
2023-07-04T16:06:42.100Z,55.73
2023-07-04T16:09:09.384Z,55.64
2023-07-04T16:11:38.268Z,55.87
2023-07-04T16:14:05.812Z,55.67
2023-07-04T16:16:33.432Z,55.58
2023-07-04T16:19:00.208Z,55.68
2023-07-04T16:21:26.965Z,55.36
2023-07-04T16:23:53.672Z,55.41
2023-07-04T16:26:20.235Z,55.40
2023-07-04T16:28:46.850Z,55.40
2023-07-04T16:31:13.518Z,55.39
2023-07-04T16:33:40.689Z,55.02
2023-07-04T16:36:07.333Z,55.23
2023-07-04T16:38:34.353Z,55.24
2023-07-04T16:41:01.349Z,55.15
2023-07-04T16:43:28.295Z,55.36
2023-07-04T16:45:58.204Z,55.16
2023-07-04T16:48:25.364Z,55.39
2023-07-04T16:50:55.387Z,55.34
2023-07-04T16:53:22.018Z,55.42
2023-07-04T16:55:55.384Z,55.76
2023-07-04T16:58:21.934Z,55.70
2023-07-04T17:00:48.506Z,55.91
2023-07-04T17:03:16.172Z,55.87
2023-07-04T17:05:43.822Z,56.54
2023-07-04T17:08:10.825Z,56.66
2023-07-04T17:10:38.191Z,57.09
2023-07-04T17:13:05.211Z,56.84
2023-07-04T17:15:31.920Z,56.88
2023-07-04T17:17:58.643Z,57.27
2023-07-04T17:20:25.209Z,57.36
2023-07-04T17:22:51.822Z,57.69
2023-07-04T17:25:19.125Z,57.61
2023-07-04T17:27:45.838Z,57.45
2023-07-04T17:30:12.578Z,57.44
2023-07-04T17:32:39.200Z,57.48
2023-07-04T17:35:07.232Z,57.32
2023-07-04T17:37:34.308Z,57.07
2023-07-04T17:40:01.123Z,57.17
2023-07-04T17:42:30.460Z,56.77
2023-07-04T17:44:58.504Z,56.88
2023-07-04T17:47:25.269Z,57.10
2023-07-04T17:49:51.906Z,56.68
2023-07-04T17:52:18.466Z,56.67
2023-07-04T17:54:45.253Z,56.80
2023-07-04T17:57:26.188Z,56.00
2023-07-04T17:59:54.664Z,56.10
2023-07-04T18:02:21.976Z,56.38
2023-07-04T18:04:48.938Z,56.83
2023-07-04T18:07:16.324Z,56.70
2023-07-04T18:09:48.503Z,56.82
2023-07-04T18:12:24.884Z,56.70
2023-07-04T18:14:53.108Z,56.73
2023-07-04T18:17:19.861Z,56.73
2023-07-04T18:19:46.729Z,56.35
2023-07-04T18:22:13.708Z,56.34
2023-07-04T18:24:40.670Z,56.66
2023-07-04T18:27:07.381Z,56.42
2023-07-04T18:29:34.769Z,56.78
2023-07-04T18:32:03.692Z,56.67
2023-07-04T18:34:30.500Z,56.89
2023-07-04T18:36:57.338Z,56.75
2023-07-04T18:39:24.100Z,56.56
2023-07-04T18:41:51.087Z,56.53
2023-07-04T18:44:17.858Z,56.53
2023-07-04T18:46:45.604Z,56.45
2023-07-04T18:49:17.486Z,56.51
2023-07-04T18:51:44.336Z,56.53
2023-07-04T18:54:16.285Z,56.61
2023-07-04T18:56:44.461Z,56.53
2023-07-04T18:59:12.531Z,56.61
2023-07-04T19:01:39.707Z,56.49
2023-07-04T19:04:06.613Z,56.87
2023-07-04T19:06:35.604Z,56.82
2023-07-04T19:09:02.762Z,56.72
2023-07-04T19:11:30.645Z,56.93
2023-07-04T19:14:11.292Z,56.90
2023-07-04T19:16:42.757Z,56.88
2023-07-04T19:19:11.181Z,57.01
2023-07-04T19:21:39.313Z,56.48
2023-07-04T19:24:06.668Z,56.85
2023-07-04T19:26:36.127Z,56.49
2023-07-04T19:29:04.078Z,56.79
2023-07-04T19:31:30.780Z,57.02
2023-07-04T19:33:58.646Z,57.18
2023-07-04T19:36:25.351Z,57.21
2023-07-04T19:38:51.994Z,57.19
2023-07-04T19:41:18.543Z,56.98
2023-07-04T19:43:45.223Z,57.46
2023-07-04T19:46:11.939Z,57.54
2023-07-04T19:48:38.808Z,57.29
2023-07-04T19:51:11.419Z,57.45
2023-07-04T19:53:40.446Z,57.43
2023-07-04T19:56:10.478Z,57.49
2023-07-04T19:58:37.876Z,57.66
2023-07-04T20:01:09.218Z,57.40
2023-07-04T20:03:36.902Z,57.43
2023-07-04T20:06:05.370Z,57.63
2023-07-04T20:08:32.720Z,57.41
2023-07-04T20:10:59.488Z,57.43
2023-07-04T20:13:29.467Z,57.34
2023-07-04T20:15:58.515Z,57.30
2023-07-04T20:18:25.671Z,57.66
2023-07-04T20:20:56.139Z,57.60
2023-07-04T20:23:23.245Z,57.63
2023-07-04T20:25:54.809Z,57.53
2023-07-04T20:28:23.569Z,57.32
2023-07-04T20:30:56.437Z,57.29
2023-07-04T20:33:25.413Z,57.16
2023-07-04T20:35:53.310Z,56.86
2023-07-04T20:38:20.760Z,57.03
2023-07-04T20:40:47.786Z,57.37
2023-07-04T20:43:15.972Z,57.01
2023-07-04T20:45:43.015Z,57.05
2023-07-04T20:48:11.265Z,57.12
2023-07-04T20:50:39.203Z,56.88
2023-07-04T20:53:06.675Z,56.99
2023-07-04T20:55:37.973Z,57.42
2023-07-04T20:58:07.441Z,57.54
2023-07-04T21:00:35.083Z,57.53
2023-07-04T21:03:02.007Z,57.49
2023-07-04T21:05:28.868Z,57.82
2023-07-04T21:07:56.658Z,57.65
2023-07-04T21:10:27.703Z,57.66
2023-07-04T21:12:58.356Z,57.51
2023-07-04T21:15:27.201Z,57.33
2023-07-04T21:17:55.386Z,57.39
2023-07-04T21:20:23.025Z,57.62
2023-07-04T21:22:50.287Z,57.51
2023-07-04T21:25:17.566Z,57.78
2023-07-04T21:27:44.547Z,57.58
2023-07-04T21:30:11.638Z,57.50
2023-07-04T21:32:38.557Z,57.77
2023-07-04T21:35:05.769Z,57.75
2023-07-04T21:37:32.480Z,57.67
2023-07-04T21:39:59.060Z,57.52
2023-07-04T21:42:25.607Z,57.44
2023-07-04T21:44:55.657Z,57.46
2023-07-04T21:47:22.414Z,57.51
2023-07-04T21:49:50.231Z,57.88
2023-07-04T21:52:17.306Z,58.02
2023-07-04T21:54:45.505Z,57.98
2023-07-04T21:57:12.995Z,58.25
2023-07-04T21:59:39.549Z,57.70
2023-07-04T22:02:06.699Z,58.11
2023-07-04T22:04:33.411Z,58.21
2023-07-04T22:07:00.016Z,58.18
2023-07-04T22:09:26.939Z,57.94
2023-07-04T22:11:53.679Z,57.97
2023-07-04T22:14:35.647Z,57.87
2023-07-04T22:17:05.649Z,58.33
2023-07-04T22:19:32.495Z,57.97
2023-07-04T22:21:59.284Z,57.71
2023-07-04T22:24:27.660Z,57.93
2023-07-04T22:26:54.536Z,58.15
2023-07-04T22:29:21.425Z,58.18
2023-07-04T22:31:47.950Z,58.18
2023-07-04T22:34:14.907Z,58.25
2023-07-04T22:36:41.937Z,58.16
2023-07-04T22:39:09.656Z,57.91
2023-07-04T22:41:36.821Z,58.35
2023-07-04T22:44:03.458Z,58.24
2023-07-04T22:46:30.684Z,58.36
2023-07-04T22:48:57.699Z,58.24
2023-07-04T22:51:24.751Z,58.36
2023-07-04T22:53:52.396Z,58.24
2023-07-04T22:56:19.795Z,57.97
2023-07-04T22:58:47.041Z,58.04
2023-07-04T23:01:18.239Z,57.76
2023-07-04T23:03:45.069Z,57.84
2023-07-04T23:06:12.860Z,57.70
2023-07-04T23:08:40.446Z,57.54
2023-07-04T23:11:07.333Z,57.74
2023-07-04T23:13:34.411Z,57.66
2023-07-04T23:16:05.293Z,57.67
2023-07-04T23:18:32.308Z,57.72
2023-07-04T23:20:59.470Z,57.64
2023-07-04T23:23:26.649Z,57.78
2023-07-04T23:25:53.706Z,57.50
2023-07-04T23:28:20.656Z,57.72
2023-07-04T23:30:47.352Z,57.54
2023-07-04T23:33:13.949Z,57.82
2023-07-04T23:35:40.493Z,57.67
2023-07-04T23:38:07.040Z,57.83
2023-07-04T23:40:33.616Z,58.18
2023-07-04T23:43:00.365Z,58.22
2023-07-04T23:45:26.912Z,58.00
2023-07-04T23:47:53.504Z,57.86
2023-07-04T23:50:20.198Z,57.86
2023-07-04T23:52:47.027Z,57.96
2023-07-04T23:55:13.664Z,58.04
2023-07-04T23:57:40.227Z,58.23
